Terry H — WDH9116 — position and weather

sailwx.info

Track history (hours):
 
Tides and Currents Weather Stations Pressure Air Temp Water Temp Dewpoint Dewpoint Depression Visibility Wind Speed Wind Dir Waves Ship Positions

Terry H

Owner: Enterprise Marine Services, LLC, San Antonio, TX. More information available from US FCC via Universal Licensing System and Coast Guard Vessel Documentation Center.

Last reported at 2018-Apr-23 15:11 UTC. Time now 2018-Apr-24 02:48 UTC.
Position N 29°56' W 093°06'.

Length 210 m; draft 2.9 m.

Type: Towing. MMSI: 367614880.

Date/timePositionNaut miles runAvg speedWind from/ knotsBaromVisibWave heightAir tempDewpointWater temp
2018-Apr-23 15:11N 29°56' W 093°06'1 6.0
2018-Apr-23 15:00N 29°56' W 093°07'3 5.3
2018-Apr-23 14:30N 29°57' W 093°10'3 5.3
2018-Apr-23 14:00N 29°59' W 093°12'3 5.0
2018-Apr-23 13:30N 30°01' W 093°14'2 3.7
2018-Apr-23 13:00N 30°02' W 093°15'3 5.3
2018-Apr-23 12:30N 30°05' W 093°17'1 2.6
2018-Apr-23 12:00N 30°05' W 093°18'1 1.2
2018-Apr-23 11:30N 30°06' W 093°18'0 0.0
2018-Apr-23 11:00N 30°06' W 093°18'1 1.4
2018-Apr-23 10:30N 30°06' W 093°19'0 0.2
2018-Apr-23 10:00N 30°06' W 093°19'0 0.1
2018-Apr-23 09:30N 30°06' W 093°19'1 1.9
2018-Apr-23 09:00N 30°05' W 093°20'2 4.2
2018-Apr-23 08:30N 30°04' W 093°21'2 4.1
2018-Apr-23 08:00N 30°04' W 093°23'3 6.1
2018-Apr-23 07:30N 30°04' W 093°27'3 5.9
2018-Apr-23 07:00N 30°04' W 093°30'3 5.7
2018-Apr-23 06:30N 30°04' W 093°34'3 5.8
2018-Apr-23 06:00N 30°04' W 093°37'3 5.9
2018-Apr-23 05:30N 30°04' W 093°40'3 6.2
2018-Apr-23 05:00N 30°03' W 093°44'3 5.8
2018-Apr-23 04:30N 30°00' W 093°46'3 5.7
2018-Apr-23 04:00N 29°59' W 093°49'2 5.0
2018-Apr-23 03:31N 29°58' W 093°51'3 6.1
2018-Apr-23 03:00N 29°55' W 093°53'3 6.6
2018-Apr-23 02:30N 29°53' W 093°56'3 6.1
2018-Apr-23 02:00N 29°50' W 093°57'2 3.9
2018-Apr-23 01:30N 29°49' W 093°59'1 1.6
2018-Apr-23 01:00N 29°50' W 093°59'0 0.0
2018-Apr-23 00:30N 29°50' W 093°59'0 0.0
2018-Apr-23 00:00N 29°50' W 093°59'1 1.9
2018-Apr-22 23:30N 29°49' W 093°59'0 0.1
2018-Apr-22 23:01N 29°49' W 093°59'1 2.0
2018-Apr-22 22:30N 29°48' W 093°60'2 5.0
2018-Apr-22 22:00N 29°47' W 094°02'3 5.2
2018-Apr-22 21:30N 29°45' W 094°04'3 5.5
2018-Apr-22 21:00N 29°43' W 094°07'2 4.7
2018-Apr-22 20:30N 29°42' W 094°09'3 5.3
2018-Apr-22 20:00N 29°41' W 094°12'3 5.3
2018-Apr-22 19:30N 29°40' W 094°14'3 5.4
2018-Apr-22 19:00N 29°39' W 094°17'3 5.2
2018-Apr-22 18:30N 29°37' W 094°20'3 5.3
2018-Apr-22 17:59N 29°36' W 094°23'2 4.4
2018-Apr-22 17:30N 29°35' W 094°25'2 3.5
2018-Apr-22 17:00N 29°34' W 094°26'3 4.9
2018-Apr-22 16:27N 29°32' W 094°29'3 3.7
2018-Apr-22 15:47N 29°31' W 094°31'2 3.9
2018-Apr-22 15:23N 29°30' W 094°33'8 5.2
2018-Apr-22 13:54N 29°27' W 094°41'2 5.3
2018-Apr-22 13:30N 29°26' W 094°43'  
2018-Apr-14 14:21N 29°40' W 094°13'2 6.1
2018-Apr-14 13:59N 29°41' W 094°11'3 5.6
2018-Apr-14 13:30N 29°42' W 094°08'3 5.8
2018-Apr-14 13:00N 29°44' W 094°06'3 6.0
2018-Apr-14 12:30N 29°46' W 094°03'3 6.5
2018-Apr-14 12:01N 29°48' W 094°00'2 3.4
2018-Apr-14 11:31N 29°49' W 093°59'0 0.0
2018-Apr-14 11:00N 29°49' W 093°59'0 0.0
2018-Apr-14 10:30N 29°49' W 093°59'0 0.0
2018-Apr-14 10:01N 29°49' W 093°59'0 0.0
2018-Apr-14 09:31N 29°49' W 093°59'0 0.0
2018-Apr-14 09:00N 29°49' W 093°59'0 0.0
2018-Apr-14 08:30N 29°49' W 093°59'0 0.0
2018-Apr-14 08:01N 29°49' W 093°59'0 0.0
2018-Apr-14 07:31N 29°49' W 093°59'0 0.0
2018-Apr-14 07:00N 29°49' W 093°59'0 0.0
2018-Apr-14 06:31N 29°49' W 093°59'0 0.0
2018-Apr-14 06:00N 29°49' W 093°59'0 0.0
2018-Apr-14 05:30N 29°49' W 093°59'0 0.0
2018-Apr-14 05:01N 29°49' W 093°59'0 0.0
2018-Apr-14 04:31N 29°49' W 093°59'0 0.0
2018-Apr-14 04:00N 29°49' W 093°59'0 0.0
2018-Apr-14 03:30N 29°49' W 093°59'0 0.0
2018-Apr-14 03:01N 29°49' W 093°59'0 0.0
2018-Apr-14 02:30N 29°49' W 093°59'0 0.0
2018-Apr-14 02:00N 29°49' W 093°59'0 0.0
2018-Apr-14 01:30N 29°49' W 093°59'0 0.0
2018-Apr-14 01:00N 29°49' W 093°59'0 0.0
2018-Apr-14 00:31N 29°49' W 093°59'0 0.0
2018-Apr-14 00:01N 29°49' W 093°59'0 0.0
2018-Apr-13 23:30N 29°49' W 093°59'0 0.0
2018-Apr-13 23:00N 29°49' W 093°59'0 0.0
2018-Apr-13 22:31N 29°49' W 093°59'0 0.0
2018-Apr-13 22:01N 29°49' W 093°59'0 0.0
2018-Apr-13 21:31N 29°49' W 093°59'0 0.0
2018-Apr-13 21:00N 29°49' W 093°59'0 0.0
2018-Apr-13 20:30N 29°49' W 093°59'0 0.0
2018-Apr-13 20:01N 29°49' W 093°59'0 0.0
2018-Apr-13 19:30N 29°49' W 093°59'0 0.0
2018-Apr-13 19:01N 29°49' W 093°59'0 0.0
2018-Apr-13 18:30N 29°49' W 093°59'0 0.0
2018-Apr-13 18:00N 29°49' W 093°59'0 0.0
2018-Apr-13 17:31N 29°49' W 093°59'0 0.0
2018-Apr-13 17:01N 29°49' W 093°59'0 0.0
2018-Apr-13 16:31N 29°49' W 093°59'0 0.0
2018-Apr-13 16:00N 29°49' W 093°59'0 0.0
2018-Apr-13 15:30N 29°49' W 093°59'  
Track history (hours):
 
Tides and Currents Weather Stations Pressure Air Temp Water Temp Dewpoint Dewpoint Depression Visibility Wind Speed Wind Dir Waves Ship Positions

Terry H

Owner: Enterprise Marine Services, LLC, San Antonio, TX. More information available from US FCC via Universal Licensing System and Coast Guard Vessel Documentation Center.

Last reported at 2018-Apr-23 15:11 UTC. Time now 2018-Apr-24 02:48 UTC.
Position N 29°56' W 093°06'.

Length 210 m; draft 2.9 m.

Type: Towing. MMSI: 367614880.

Date/timePositionNaut miles runAvg speedWind from/ knotsBaromVisibWave heightAir tempDewpointWater temp
2018-Apr-23 15:11N 29°56' W 093°06'1 6.0
2018-Apr-23 15:00N 29°56' W 093°07'3 5.3
2018-Apr-23 14:30N 29°57' W 093°10'3 5.3
2018-Apr-23 14:00N 29°59' W 093°12'3 5.0
2018-Apr-23 13:30N 30°01' W 093°14'2 3.7
2018-Apr-23 13:00N 30°02' W 093°15'3 5.3
2018-Apr-23 12:30N 30°05' W 093°17'1 2.6
2018-Apr-23 12:00N 30°05' W 093°18'1 1.2
2018-Apr-23 11:30N 30°06' W 093°18'0 0.0
2018-Apr-23 11:00N 30°06' W 093°18'1 1.4
2018-Apr-23 10:30N 30°06' W 093°19'0 0.2
2018-Apr-23 10:00N 30°06' W 093°19'0 0.1
2018-Apr-23 09:30N 30°06' W 093°19'1 1.9
2018-Apr-23 09:00N 30°05' W 093°20'2 4.2
2018-Apr-23 08:30N 30°04' W 093°21'2 4.1
2018-Apr-23 08:00N 30°04' W 093°23'3 6.1
2018-Apr-23 07:30N 30°04' W 093°27'3 5.9
2018-Apr-23 07:00N 30°04' W 093°30'3 5.7
2018-Apr-23 06:30N 30°04' W 093°34'3 5.8
2018-Apr-23 06:00N 30°04' W 093°37'3 5.9
2018-Apr-23 05:30N 30°04' W 093°40'3 6.2
2018-Apr-23 05:00N 30°03' W 093°44'3 5.8
2018-Apr-23 04:30N 30°00' W 093°46'3 5.7
2018-Apr-23 04:00N 29°59' W 093°49'2 5.0
2018-Apr-23 03:31N 29°58' W 093°51'3 6.1
2018-Apr-23 03:00N 29°55' W 093°53'3 6.6
2018-Apr-23 02:30N 29°53' W 093°56'3 6.1
2018-Apr-23 02:00N 29°50' W 093°57'2 3.9
2018-Apr-23 01:30N 29°49' W 093°59'1 1.6
2018-Apr-23 01:00N 29°50' W 093°59'0 0.0
2018-Apr-23 00:30N 29°50' W 093°59'0 0.0
2018-Apr-23 00:00N 29°50' W 093°59'1 1.9
2018-Apr-22 23:30N 29°49' W 093°59'0 0.1
2018-Apr-22 23:01N 29°49' W 093°59'1 2.0
2018-Apr-22 22:30N 29°48' W 093°60'2 5.0
2018-Apr-22 22:00N 29°47' W 094°02'3 5.2
2018-Apr-22 21:30N 29°45' W 094°04'3 5.5
2018-Apr-22 21:00N 29°43' W 094°07'2 4.7
2018-Apr-22 20:30N 29°42' W 094°09'3 5.3
2018-Apr-22 20:00N 29°41' W 094°12'3 5.3
2018-Apr-22 19:30N 29°40' W 094°14'3 5.4
2018-Apr-22 19:00N 29°39' W 094°17'3 5.2
2018-Apr-22 18:30N 29°37' W 094°20'3 5.3
2018-Apr-22 17:59N 29°36' W 094°23'2 4.4
2018-Apr-22 17:30N 29°35' W 094°25'2 3.5
2018-Apr-22 17:00N 29°34' W 094°26'3 4.9
2018-Apr-22 16:27N 29°32' W 094°29'3 3.7
2018-Apr-22 15:47N 29°31' W 094°31'2 3.9
2018-Apr-22 15:23N 29°30' W 094°33'8 5.2
2018-Apr-22 13:54N 29°27' W 094°41'2 5.3
2018-Apr-22 13:30N 29°26' W 094°43'  
2018-Apr-14 14:21N 29°40' W 094°13'2 6.1
2018-Apr-14 13:59N 29°41' W 094°11'3 5.6
2018-Apr-14 13:30N 29°42' W 094°08'3 5.8
2018-Apr-14 13:00N 29°44' W 094°06'3 6.0
2018-Apr-14 12:30N 29°46' W 094°03'3 6.5
2018-Apr-14 12:01N 29°48' W 094°00'2 3.4
2018-Apr-14 11:31N 29°49' W 093°59'0 0.0
2018-Apr-14 11:00N 29°49' W 093°59'0 0.0
2018-Apr-14 10:30N 29°49' W 093°59'0 0.0
2018-Apr-14 10:01N 29°49' W 093°59'0 0.0
2018-Apr-14 09:31N 29°49' W 093°59'0 0.0
2018-Apr-14 09:00N 29°49' W 093°59'0 0.0
2018-Apr-14 08:30N 29°49' W 093°59'0 0.0
2018-Apr-14 08:01N 29°49' W 093°59'0 0.0
2018-Apr-14 07:31N 29°49' W 093°59'0 0.0
2018-Apr-14 07:00N 29°49' W 093°59'0 0.0
2018-Apr-14 06:31N 29°49' W 093°59'0 0.0
2018-Apr-14 06:00N 29°49' W 093°59'0 0.0
2018-Apr-14 05:30N 29°49' W 093°59'0 0.0
2018-Apr-14 05:01N 29°49' W 093°59'0 0.0
2018-Apr-14 04:31N 29°49' W 093°59'0 0.0
2018-Apr-14 04:00N 29°49' W 093°59'0 0.0
2018-Apr-14 03:30N 29°49' W 093°59'0 0.0
2018-Apr-14 03:01N 29°49' W 093°59'0 0.0
2018-Apr-14 02:30N 29°49' W 093°59'0 0.0
2018-Apr-14 02:00N 29°49' W 093°59'0 0.0
2018-Apr-14 01:30N 29°49' W 093°59'0 0.0
2018-Apr-14 01:00N 29°49' W 093°59'0 0.0
2018-Apr-14 00:31N 29°49' W 093°59'0 0.0
2018-Apr-14 00:01N 29°49' W 093°59'0 0.0
2018-Apr-13 23:30N 29°49' W 093°59'0 0.0
2018-Apr-13 23:00N 29°49' W 093°59'0 0.0
2018-Apr-13 22:31N 29°49' W 093°59'0 0.0
2018-Apr-13 22:01N 29°49' W 093°59'0 0.0
2018-Apr-13 21:31N 29°49' W 093°59'0 0.0
2018-Apr-13 21:00N 29°49' W 093°59'0 0.0
2018-Apr-13 20:30N 29°49' W 093°59'0 0.0
2018-Apr-13 20:01N 29°49' W 093°59'0 0.0
2018-Apr-13 19:30N 29°49' W 093°59'0 0.0
2018-Apr-13 19:01N 29°49' W 093°59'0 0.0
2018-Apr-13 18:30N 29°49' W 093°59'0 0.0
2018-Apr-13 18:00N 29°49' W 093°59'0 0.0
2018-Apr-13 17:31N 29°49' W 093°59'0 0.0
2018-Apr-13 17:01N 29°49' W 093°59'0 0.0
2018-Apr-13 16:31N 29°49' W 093°59'0 0.0
2018-Apr-13 16:00N 29°49' W 093°59'0 0.0
2018-Apr-13 15:30N 29°49' W 093°59'  

Dump ship's entire track history